createdAt,value
2019-05-26T00:01:19.524Z,81.29
2019-05-26T00:03:51.699Z,82.01
2019-05-26T00:06:21.910Z,81.75
2019-05-26T00:08:52.768Z,82.15
2019-05-26T00:11:22.885Z,82.00
2019-05-26T00:13:53.029Z,82.62
2019-05-26T00:16:24.187Z,82.41
2019-05-26T00:18:54.319Z,82.76
2019-05-26T00:21:27.788Z,82.56
2019-05-26T00:23:59.810Z,82.88
2019-05-26T00:26:30.302Z,82.85
2019-05-26T00:29:00.443Z,82.74
2019-05-26T00:31:31.045Z,83.10
2019-05-26T00:34:01.136Z,82.60
2019-05-26T00:36:31.417Z,82.95
2019-05-26T00:39:01.598Z,82.74
2019-05-26T00:41:33.656Z,82.64
2019-05-26T00:44:05.462Z,82.74
2019-05-26T00:46:36.044Z,82.59
2019-05-26T00:49:06.220Z,82.77
2019-05-26T00:51:37.338Z,84.01
2019-05-26T00:54:07.526Z,83.64
2019-05-26T00:56:37.650Z,83.33
2019-05-26T00:59:07.784Z,83.19
2019-05-26T01:01:37.891Z,83.22
2019-05-26T01:04:08.012Z,83.17
2019-05-26T01:06:39.640Z,83.57
2019-05-26T01:09:10.010Z,83.24
2019-05-26T01:11:40.214Z,83.48
2019-05-26T01:14:10.424Z,83.35
2019-05-26T01:16:40.548Z,83.72
2019-05-26T01:19:11.782Z,83.60
2019-05-26T01:21:42.302Z,83.43
2019-05-26T01:24:12.591Z,83.67
2019-05-26T01:26:45.776Z,83.90
2019-05-26T01:29:15.993Z,83.83
2019-05-26T01:31:47.179Z,84.00
2019-05-26T01:34:17.318Z,84.59
2019-05-26T01:36:48.070Z,84.28
2019-05-26T01:39:18.302Z,84.01
2019-05-26T01:41:48.422Z,84.08
2019-05-26T01:44:19.152Z,84.33
2019-05-26T01:46:49.406Z,84.88
2019-05-26T01:49:19.500Z,85.05
2019-05-26T01:51:49.610Z,85.14
2019-05-26T01:54:21.061Z,84.99
2019-05-26T01:56:51.149Z,84.82
2019-05-26T01:59:22.481Z,85.06
2019-05-26T02:01:52.567Z,85.11
2019-05-26T02:04:22.765Z,85.19
2019-05-26T02:06:52.999Z,85.23
2019-05-26T02:09:23.139Z,85.06
2019-05-26T02:11:53.480Z,84.91
2019-05-26T02:14:24.044Z,85.30
2019-05-26T02:16:54.245Z,85.22
2019-05-26T02:19:24.829Z,85.20
2019-05-26T02:21:54.909Z,85.23
2019-05-26T02:24:25.082Z,84.86
2019-05-26T02:26:55.454Z,85.13
2019-05-26T02:29:25.645Z,85.35
2019-05-26T02:31:55.759Z,85.86
2019-05-26T02:34:26.023Z,85.84
2019-05-26T02:36:58.061Z,85.72
2019-05-26T02:39:28.221Z,85.85
2019-05-26T02:41:58.304Z,85.59
2019-05-26T02:44:28.393Z,85.39
2019-05-26T02:46:58.479Z,85.49
2019-05-26T02:49:28.624Z,85.33
2019-05-26T02:51:58.861Z,85.83
2019-05-26T02:54:28.955Z,86.08
2019-05-26T02:56:59.111Z,85.73
2019-05-26T02:59:29.227Z,85.54
2019-05-26T03:02:03.974Z,86.35
2019-05-26T03:04:32.344Z,85.54
2019-05-26T03:07:03.654Z,85.43
2019-05-26T03:09:34.944Z,85.90
2019-05-26T03:12:05.199Z,85.77
2019-05-26T03:14:37.322Z,86.42
2019-05-26T03:17:07.982Z,86.27
2019-05-26T03:19:40.560Z,86.27
2019-05-26T03:22:12.069Z,85.81
2019-05-26T03:24:45.159Z,85.55
2019-05-26T03:27:15.258Z,86.75
2019-05-26T03:29:45.471Z,86.17
2019-05-26T03:32:15.661Z,85.97
2019-05-26T03:34:46.888Z,85.71
2019-05-26T03:37:16.971Z,86.14
2019-05-26T03:39:48.064Z,85.55
2019-05-26T03:42:18.177Z,86.00
2019-05-26T03:44:48.306Z,85.96
2019-05-26T03:47:18.439Z,85.60
2019-05-26T03:49:48.649Z,85.22
2019-05-26T03:52:18.757Z,85.40
2019-05-26T03:54:49.976Z,85.35
2019-05-26T03:57:20.274Z,85.60
2019-05-26T03:59:50.393Z,85.16
2019-05-26T04:02:20.476Z,84.75
2019-05-26T04:04:50.674Z,85.79
2019-05-26T04:07:20.754Z,84.79
2019-05-26T04:10:03.761Z,84.38
2019-05-26T04:12:22.802Z,84.24
2019-05-26T04:14:53.499Z,84.13
2019-05-26T04:17:24.396Z,83.94
2019-05-26T04:19:54.939Z,83.72
2019-05-26T04:22:25.122Z,83.75
2019-05-26T04:24:55.311Z,84.86
2019-05-26T04:27:25.542Z,84.14
2019-05-26T04:29:55.716Z,83.25
2019-05-26T04:32:25.983Z,83.12
2019-05-26T04:34:56.090Z,83.04
2019-05-26T04:37:26.230Z,82.56
2019-05-26T04:39:56.398Z,82.49
2019-05-26T04:42:26.601Z,81.70
2019-05-26T04:44:56.892Z,81.19
2019-05-26T04:47:27.122Z,81.95
2019-05-26T04:49:57.284Z,81.49
2019-05-26T04:52:27.671Z,80.84
2019-05-26T04:55:00.851Z,80.80
2019-05-26T04:57:31.102Z,80.13
2019-05-26T05:00:01.361Z,80.33
2019-05-26T05:02:31.580Z,79.49
2019-05-26T05:05:06.002Z,79.35
2019-05-26T05:07:36.225Z,79.45
2019-05-26T05:10:07.083Z,79.09
2019-05-26T05:12:37.385Z,79.06
2019-05-26T05:15:08.421Z,78.63
2019-05-26T05:17:38.699Z,78.43
2019-05-26T05:20:09.261Z,78.22
2019-05-26T05:22:43.881Z,78.80
2019-05-26T05:25:17.095Z,77.85
2019-05-26T05:27:49.477Z,77.40
2019-05-26T05:30:19.873Z,76.97
2019-05-26T05:32:54.021Z,76.85
2019-05-26T05:35:24.733Z,76.36
2019-05-26T05:37:55.062Z,75.59
2019-05-26T05:40:25.300Z,74.83
2019-05-26T05:42:55.619Z,74.66
2019-05-26T05:45:27.996Z,74.14
2019-05-26T05:48:02.902Z,73.18
2019-05-26T05:50:43.718Z,72.80
2019-05-26T05:53:14.358Z,71.55
2019-05-26T05:55:44.640Z,70.68
2019-05-26T05:58:23.641Z,70.51
2019-05-26T06:00:58.666Z,69.36
2019-05-26T06:03:33.051Z,68.90
2019-05-26T06:06:07.603Z,68.49
2019-05-26T06:08:37.895Z,70.23
2019-05-26T06:11:16.644Z,68.27
2019-05-26T06:13:41.005Z,67.59
2019-05-26T06:16:11.166Z,69.20
2019-05-26T06:18:42.839Z,67.97
2019-05-26T06:21:13.071Z,67.07
2019-05-26T06:23:43.317Z,67.95
2019-05-26T06:26:14.681Z,66.60
2019-05-26T06:28:47.977Z,69.52
2019-05-26T06:31:18.353Z,67.22
2019-05-26T06:33:48.635Z,66.02
2019-05-26T06:36:21.794Z,67.69
2019-05-26T06:38:53.680Z,67.15
2019-05-26T06:41:33.790Z,66.22
2019-05-26T06:44:03.250Z,65.08
2019-05-26T06:46:33.954Z,65.57
2019-05-26T06:49:04.379Z,64.89
2019-05-26T06:51:34.551Z,64.32
2019-05-26T06:54:08.050Z,63.78
2019-05-26T06:56:38.448Z,63.72
2019-05-26T06:59:08.750Z,65.30
2019-05-26T07:01:39.076Z,65.13
2019-05-26T07:04:11.762Z,63.87
2019-05-26T07:06:43.756Z,64.30
2019-05-26T07:09:13.956Z,62.32
2019-05-26T07:11:55.731Z,62.16
2019-05-26T07:14:19.850Z,62.61
2019-05-26T07:16:52.804Z,62.71
2019-05-26T07:19:23.022Z,62.12
2019-05-26T07:21:53.211Z,61.53
2019-05-26T07:24:23.387Z,61.73
2019-05-26T07:26:58.095Z,61.39
2019-05-26T07:29:30.577Z,62.06
2019-05-26T07:32:00.803Z,61.93
2019-05-26T07:34:36.359Z,63.16
2019-05-26T07:37:06.757Z,63.04
2019-05-26T07:39:37.019Z,61.37
2019-05-26T07:42:10.494Z,61.95
2019-05-26T07:44:39.276Z,61.57
2019-05-26T07:47:09.485Z,61.67
2019-05-26T07:49:39.706Z,62.09
2019-05-26T07:52:13.253Z,62.36
2019-05-26T07:54:43.422Z,62.58
2019-05-26T07:57:17.623Z,61.99
2019-05-26T07:59:45.717Z,62.18
2019-05-26T08:02:15.998Z,62.10
2019-05-26T08:04:49.171Z,63.03
2019-05-26T08:07:24.081Z,60.65
2019-05-26T08:09:54.327Z,58.95
2019-05-26T08:12:28.134Z,57.79
2019-05-26T08:14:56.664Z,57.43
2019-05-26T08:17:27.041Z,58.61
2019-05-26T08:19:58.252Z,57.66
2019-05-26T08:22:31.896Z,59.11
2019-05-26T08:25:04.861Z,56.14
2019-05-26T08:27:41.443Z,56.04
2019-05-26T08:30:15.063Z,56.00
2019-05-26T08:32:47.039Z,54.95
2019-05-26T08:35:17.590Z,54.27
2019-05-26T08:37:47.850Z,53.24
2019-05-26T08:40:20.795Z,53.23
2019-05-26T08:42:52.270Z,53.84
2019-05-26T08:45:24.501Z,53.55
2019-05-26T08:48:02.585Z,53.10
2019-05-26T08:50:34.449Z,51.63
2019-05-26T08:53:05.191Z,51.82
2019-05-26T08:55:38.627Z,51.50
2019-05-26T08:58:11.670Z,50.42
2019-05-26T09:00:41.922Z,48.80
2019-05-26T09:03:12.114Z,47.98
2019-05-26T09:05:44.380Z,48.80
2019-05-26T09:08:20.708Z,47.48
2019-05-26T09:10:52.175Z,47.48
2019-05-26T09:13:22.992Z,46.18
2019-05-26T09:15:53.165Z,44.90
2019-05-26T09:18:23.383Z,43.73
2019-05-26T09:20:53.676Z,43.93
2019-05-26T09:23:24.754Z,44.52
2019-05-26T09:25:57.508Z,44.81
2019-05-26T09:28:27.386Z,44.38
2019-05-26T09:30:57.587Z,44.14
2019-05-26T09:33:27.857Z,44.81
2019-05-26T09:35:58.120Z,44.71
2019-05-26T09:38:28.311Z,45.41
2019-05-26T09:40:58.625Z,43.80
2019-05-26T09:43:30.263Z,44.44
2019-05-26T09:46:00.773Z,45.08
2019-05-26T09:48:31.247Z,45.37
2019-05-26T09:51:09.901Z,45.03
2019-05-26T09:53:40.089Z,46.05
2019-05-26T09:56:10.462Z,45.30
2019-05-26T09:58:40.593Z,45.75
2019-05-26T10:01:10.995Z,45.31
2019-05-26T10:03:43.703Z,44.42
2019-05-26T10:06:16.995Z,44.29
2019-05-26T10:08:50.655Z,44.18
2019-05-26T10:11:22.521Z,44.93
2019-05-26T10:13:52.984Z,44.36
2019-05-26T10:16:23.339Z,44.36
2019-05-26T10:18:54.449Z,44.47
2019-05-26T10:21:27.844Z,44.53
2019-05-26T10:23:58.306Z,45.09
2019-05-26T10:26:31.366Z,45.88
2019-05-26T10:29:05.172Z,43.75
2019-05-26T10:31:37.376Z,42.61
2019-05-26T10:34:07.654Z,42.91
2019-05-26T10:36:38.598Z,42.46
2019-05-26T10:39:10.012Z,41.41
2019-05-26T10:41:40.153Z,41.13
2019-05-26T10:44:11.589Z,40.42
2019-05-26T10:46:45.188Z,40.84
2019-05-26T10:49:18.950Z,41.29
2019-05-26T10:51:48.698Z,40.62
2019-05-26T10:54:18.947Z,41.21
2019-05-26T10:56:49.452Z,41.21
2019-05-26T10:59:19.723Z,41.66
2019-05-26T11:01:50.617Z,41.25
2019-05-26T11:04:22.891Z,40.59
2019-05-26T11:06:55.506Z,40.67
2019-05-26T11:09:28.028Z,39.69
2019-05-26T11:11:58.332Z,39.49
2019-05-26T11:14:28.799Z,39.53
2019-05-26T11:16:59.167Z,39.59
2019-05-26T11:19:36.413Z,39.70
2019-05-26T11:22:09.116Z,39.67
2019-05-26T11:24:42.842Z,39.67
2019-05-26T11:27:14.261Z,39.61
2019-05-26T11:29:46.318Z,40.38
2019-05-26T11:32:17.500Z,39.58
2019-05-26T11:35:01.600Z,38.79
2019-05-26T11:37:26.501Z,38.81
2019-05-26T11:39:56.950Z,39.25
2019-05-26T11:42:31.228Z,38.61
2019-05-26T11:45:01.408Z,39.10
2019-05-26T11:47:31.683Z,38.88
2019-05-26T11:50:01.922Z,38.92
2019-05-26T11:52:32.231Z,40.19
2019-05-26T11:55:05.443Z,38.35
2019-05-26T11:57:37.740Z,38.05
2019-05-26T12:00:11.651Z,37.59
2019-05-26T12:02:41.940Z,37.31
2019-05-26T12:05:12.197Z,37.51
2019-05-26T12:07:44.775Z,36.74
2019-05-26T12:10:15.702Z,37.49
2019-05-26T12:12:45.924Z,36.89
2019-05-26T12:15:17.159Z,36.91
2019-05-26T12:17:47.610Z,36.35
2019-05-26T12:20:19.654Z,36.26
2019-05-26T12:22:49.893Z,35.89
2019-05-26T12:25:23.270Z,36.27
2019-05-26T12:27:53.487Z,37.34
2019-05-26T12:30:26.757Z,36.52
2019-05-26T12:32:57.041Z,36.59
2019-05-26T12:35:43.992Z,37.12
2019-05-26T12:38:17.666Z,37.07
2019-05-26T12:40:48.215Z,36.85
2019-05-26T12:43:20.334Z,37.17
2019-05-26T12:45:52.992Z,37.25
2019-05-26T12:48:23.386Z,37.05
2019-05-26T12:50:53.558Z,36.85
2019-05-26T12:53:23.858Z,36.73
2019-05-26T12:55:58.694Z,36.61
2019-05-26T12:58:29.852Z,36.47
2019-05-26T13:01:00.085Z,37.02
2019-05-26T13:03:34.317Z,37.71
2019-05-26T13:06:05.066Z,37.63
2019-05-26T13:08:42.555Z,36.63
2019-05-26T13:11:13.179Z,37.46
2019-05-26T13:13:43.498Z,35.36
2019-05-26T13:16:13.792Z,35.38
2019-05-26T13:18:46.782Z,36.24
2019-05-26T13:21:19.661Z,35.68
2019-05-26T13:23:50.478Z,36.57
2019-05-26T13:26:20.650Z,36.43
2019-05-26T13:28:55.471Z,37.11
2019-05-26T13:31:25.705Z,36.30
2019-05-26T13:33:55.950Z,36.38
2019-05-26T13:36:26.233Z,36.18
2019-05-26T13:38:56.510Z,35.95
2019-05-26T13:41:32.614Z,35.23
2019-05-26T13:44:02.956Z,34.08
2019-05-26T13:46:33.630Z,33.19
2019-05-26T13:49:09.648Z,33.69
2019-05-26T13:51:39.984Z,34.91
2019-05-26T13:54:17.626Z,34.91
2019-05-26T13:56:51.714Z,35.12
2019-05-26T13:59:24.621Z,34.74
2019-05-26T14:01:54.739Z,34.70
2019-05-26T14:04:25.053Z,34.20
2019-05-26T14:06:57.104Z,35.12
2019-05-26T14:09:28.787Z,34.56
2019-05-26T14:12:14.166Z,34.39
2019-05-26T14:14:58.606Z,33.59
2019-05-26T14:17:30.354Z,32.98
2019-05-26T14:20:04.354Z,32.81
2019-05-26T14:22:47.352Z,33.68
2019-05-26T14:25:17.820Z,33.68
2019-05-26T14:27:48.176Z,33.88
2019-05-26T14:30:20.859Z,33.88
2019-05-26T14:32:53.360Z,34.48
2019-05-26T14:35:23.650Z,34.48
2019-05-26T14:37:53.746Z,33.99
2019-05-26T14:40:24.098Z,32.85
2019-05-26T14:42:54.329Z,32.71
2019-05-26T14:45:30.278Z,32.71
2019-05-26T14:48:02.653Z,32.75
2019-05-26T14:50:33.688Z,32.88
2019-05-26T14:53:10.857Z,32.33
2019-05-26T14:55:48.453Z,32.39
2019-05-26T14:58:19.787Z,32.53
2019-05-26T15:00:50.016Z,32.34
2019-05-26T15:03:21.652Z,30.97
2019-05-26T15:06:05.093Z,30.16
2019-05-26T15:08:27.120Z,29.69
2019-05-26T15:10:59.600Z,29.28
2019-05-26T15:13:31.890Z,29.21
2019-05-26T15:16:09.835Z,30.23
2019-05-26T15:18:34.335Z,28.88
2019-05-26T15:21:04.675Z,29.02
2019-05-26T15:23:35.550Z,28.68
2019-05-26T15:26:08.547Z,29.35
2019-05-26T15:28:38.975Z,30.20
2019-05-26T15:31:11.200Z,29.76
2019-05-26T15:33:43.219Z,29.24
2019-05-26T15:36:18.305Z,28.75
2019-05-26T15:38:48.503Z,28.64
2019-05-26T15:41:19.239Z,29.68
2019-05-26T15:43:52.145Z,30.16
2019-05-26T15:46:25.698Z,31.63
2019-05-26T15:48:56.325Z,32.05
2019-05-26T15:51:27.016Z,31.65
2019-05-26T15:53:58.777Z,32.15
2019-05-26T15:56:29.036Z,32.93
2019-05-26T15:58:59.263Z,33.99
2019-05-26T16:01:33.003Z,33.63
2019-05-26T16:04:03.336Z,33.69
2019-05-26T16:06:33.554Z,34.11
2019-05-26T16:09:04.785Z,34.77
2019-05-26T16:11:35.250Z,35.62
2019-05-26T16:14:05.762Z,35.97
2019-05-26T16:16:41.443Z,36.43
2019-05-26T16:19:12.245Z,36.56
2019-05-26T16:21:45.380Z,36.24
2019-05-26T16:24:15.872Z,36.41
2019-05-26T16:26:46.269Z,37.26
2019-05-26T16:29:18.152Z,37.66
2019-05-26T16:31:52.543Z,38.61
2019-05-26T16:34:23.718Z,38.93
2019-05-26T16:36:53.819Z,39.15
2019-05-26T16:39:36.630Z,39.24
2019-05-26T16:41:58.539Z,39.68
2019-05-26T16:44:29.112Z,39.91
2019-05-26T16:47:02.097Z,39.59
2019-05-26T16:49:35.694Z,40.32
2019-05-26T16:52:09.899Z,40.20
2019-05-26T16:54:41.886Z,40.81
2019-05-26T16:57:15.937Z,40.06
2019-05-26T16:59:47.897Z,40.52
2019-05-26T17:02:19.870Z,39.23
2019-05-26T17:04:53.019Z,38.64
2019-05-26T17:07:30.843Z,38.68
2019-05-26T17:10:16.511Z,38.02
2019-05-26T17:12:46.839Z,38.18
2019-05-26T17:15:18.724Z,38.59
2019-05-26T17:17:49.843Z,39.87
2019-05-26T17:20:24.635Z,40.04
2019-05-26T17:22:55.553Z,40.24
2019-05-26T17:25:28.992Z,39.77
2019-05-26T17:28:01.098Z,39.67
2019-05-26T17:30:31.520Z,40.38
2019-05-26T17:33:03.649Z,40.34
2019-05-26T17:35:34.773Z,40.79
2019-05-26T17:38:06.595Z,41.51
2019-05-26T17:40:39.940Z,42.15
2019-05-26T17:43:13.184Z,42.73
2019-05-26T17:45:43.600Z,42.72
2019-05-26T17:48:14.079Z,43.24
2019-05-26T17:50:46.219Z,43.50
2019-05-26T17:53:17.870Z,43.85
2019-05-26T17:55:48.299Z,44.25
2019-05-26T17:58:18.429Z,44.35
2019-05-26T18:00:48.640Z,44.71
2019-05-26T18:03:19.189Z,44.84
2019-05-26T18:05:49.587Z,45.20
2019-05-26T18:08:20.191Z,45.09
2019-05-26T18:10:50.492Z,45.75
2019-05-26T18:13:20.921Z,46.18
2019-05-26T18:15:51.153Z,45.98
2019-05-26T18:18:21.304Z,46.08
2019-05-26T18:20:51.513Z,47.07
2019-05-26T18:23:21.664Z,47.08
2019-05-26T18:25:51.853Z,46.89
2019-05-26T18:28:21.976Z,46.45
2019-05-26T18:30:52.279Z,46.85
2019-05-26T18:33:23.935Z,46.78
2019-05-26T18:35:54.123Z,47.02
2019-05-26T18:38:24.360Z,47.48
2019-05-26T18:40:54.788Z,47.36
2019-05-26T18:43:25.075Z,47.54
2019-05-26T18:45:55.228Z,47.63
2019-05-26T18:48:31.718Z,47.71
2019-05-26T18:51:01.913Z,47.85
2019-05-26T18:53:34.974Z,47.99
2019-05-26T18:56:05.167Z,48.07
2019-05-26T18:58:35.399Z,48.01
2019-05-26T19:01:05.832Z,48.41
2019-05-26T19:03:36.325Z,48.35
2019-05-26T19:06:09.274Z,48.62
2019-05-26T19:08:39.681Z,48.86
2019-05-26T19:11:10.148Z,49.03
2019-05-26T19:13:42.859Z,49.01
2019-05-26T19:16:14.031Z,49.52
2019-05-26T19:18:44.231Z,49.36
2019-05-26T19:21:14.384Z,49.14
2019-05-26T19:23:45.599Z,49.47
2019-05-26T19:26:15.936Z,49.61
2019-05-26T19:28:46.544Z,49.64
2019-05-26T19:31:17.019Z,49.73
2019-05-26T19:33:47.465Z,50.11
2019-05-26T19:36:17.949Z,50.13
2019-05-26T19:38:49.217Z,50.32
2019-05-26T19:41:19.511Z,50.26
2019-05-26T19:43:49.763Z,50.35
2019-05-26T19:46:20.076Z,50.47
2019-05-26T19:48:50.398Z,50.55
2019-05-26T19:51:20.614Z,51.00
2019-05-26T19:53:50.864Z,50.95
2019-05-26T19:56:21.895Z,50.85
2019-05-26T19:58:52.284Z,51.16
2019-05-26T20:01:22.625Z,51.30
2019-05-26T20:03:53.695Z,51.63
2019-05-26T20:06:24.161Z,51.66
2019-05-26T20:08:55.522Z,51.86
2019-05-26T20:11:25.765Z,51.60
2019-05-26T20:13:55.988Z,51.85
2019-05-26T20:16:26.266Z,52.07
2019-05-26T20:18:56.514Z,52.35
2019-05-26T20:21:26.759Z,52.29
2019-05-26T20:23:56.940Z,52.32
2019-05-26T20:26:27.224Z,52.59
2019-05-26T20:28:57.376Z,52.65
2019-05-26T20:31:27.531Z,53.29
2019-05-26T20:33:58.553Z,53.07
2019-05-26T20:36:28.621Z,53.43
2019-05-26T20:38:58.798Z,53.56
2019-05-26T20:41:29.022Z,53.69
2019-05-26T20:43:59.192Z,53.68
2019-05-26T20:46:29.658Z,53.96
2019-05-26T20:49:00.343Z,53.78
2019-05-26T20:51:36.740Z,53.87
2019-05-26T20:54:07.298Z,54.45
2019-05-26T20:56:37.428Z,54.56
2019-05-26T20:59:07.649Z,54.59
2019-05-26T21:01:38.026Z,55.12
2019-05-26T21:04:12.252Z,55.06
2019-05-26T21:06:42.532Z,55.33
2019-05-26T21:09:12.820Z,55.42
2019-05-26T21:11:43.098Z,55.29
2019-05-26T21:14:13.270Z,55.44
2019-05-26T21:16:43.610Z,55.37
2019-05-26T21:19:13.810Z,55.67
2019-05-26T21:21:43.976Z,55.35
2019-05-26T21:24:14.162Z,55.90
2019-05-26T21:26:44.258Z,56.14
2019-05-26T21:29:14.512Z,56.05
2019-05-26T21:31:44.703Z,56.92
2019-05-26T21:34:14.821Z,56.32
2019-05-26T21:36:45.048Z,56.48
2019-05-26T21:39:15.179Z,56.68
2019-05-26T21:41:45.413Z,56.63
2019-05-26T21:44:15.618Z,56.78
2019-05-26T21:46:45.732Z,56.72
2019-05-26T21:49:15.918Z,57.19
2019-05-26T21:51:46.178Z,57.20
2019-05-26T21:54:16.321Z,57.60
2019-05-26T21:56:46.459Z,57.28
2019-05-26T21:59:16.680Z,57.95
2019-05-26T22:01:46.826Z,57.57
2019-05-26T22:04:16.974Z,57.71
2019-05-26T22:06:47.124Z,57.96
2019-05-26T22:09:17.290Z,58.25
2019-05-26T22:11:47.406Z,58.28
2019-05-26T22:14:17.627Z,58.38
2019-05-26T22:16:47.834Z,58.12
2019-05-26T22:19:18.262Z,58.30
2019-05-26T22:21:48.522Z,58.27
2019-05-26T22:24:18.726Z,58.71
2019-05-26T22:26:48.942Z,58.56
2019-05-26T22:29:19.164Z,58.53
2019-05-26T22:31:49.358Z,58.53
2019-05-26T22:34:19.584Z,58.12
2019-05-26T22:36:49.755Z,58.20
2019-05-26T22:39:19.982Z,58.75
2019-05-26T22:41:50.175Z,58.34
2019-05-26T22:44:20.544Z,58.23
2019-05-26T22:46:51.057Z,58.29
2019-05-26T22:49:21.454Z,58.42
2019-05-26T22:51:51.684Z,58.25
2019-05-26T22:54:22.048Z,58.41
2019-05-26T22:56:52.209Z,58.24
2019-05-26T22:59:22.489Z,58.70
2019-05-26T23:01:53.881Z,58.51
2019-05-26T23:04:24.123Z,58.72
2019-05-26T23:06:54.371Z,58.72
2019-05-26T23:09:24.674Z,58.76
2019-05-26T23:11:55.098Z,59.09
2019-05-26T23:14:25.329Z,58.80
2019-05-26T23:16:55.564Z,59.03
2019-05-26T23:19:25.767Z,59.14
2019-05-26T23:21:56.009Z,59.17
2019-05-26T23:24:26.219Z,58.95
2019-05-26T23:26:56.556Z,59.10
2019-05-26T23:29:26.762Z,59.42
2019-05-26T23:31:57.216Z,59.29
2019-05-26T23:34:27.446Z,59.07
2019-05-26T23:36:57.664Z,59.83
2019-05-26T23:39:27.981Z,59.38
2019-05-26T23:41:58.320Z,59.21
2019-05-26T23:44:28.630Z,59.14
2019-05-26T23:46:58.955Z,59.02
2019-05-26T23:49:29.279Z,58.97
2019-05-26T23:51:59.523Z,58.61
2019-05-26T23:54:29.828Z,58.57
2019-05-26T23:57:00.134Z,58.74
2019-05-26T23:59:30.364Z,59.19
